Time;durP1;ratioP1;P1;durP2;ratioP2;P2;SDS_P1;SDS_P2;PMS_P1;PMS_P2;Temp;Humidity;BMP_temperature;BMP_pressure;BME280_temperature;BME280_humidity;BME280_pressure;Samples;Min_cycle;Max_cycle;Signal;HPM_P1;HPM_P2
2021/11/24 00:00:16;;;;;;;8.00;4.35;;;;;;;6.41;66.25;98092.53;5048830;28;20029;-81
2021/11/24 00:02:42;;;;;;;8.02;4.05;;;;;;;6.39;65.89;98079.78;5029625;28;20020;-80
2021/11/24 00:05:07;;;;;;;6.13;3.53;;;;;;;6.41;65.92;98088.19;5021196;28;20495;-80
2021/11/24 00:07:33;;;;;;;8.82;4.18;;;;;;;6.43;66.19;98088.78;5046580;28;20594;-81
2021/11/24 00:09:58;;;;;;;9.38;4.70;;;;;;;6.48;66.40;98091.56;5033950;28;20086;-81
2021/11/24 00:12:23;;;;;;;6.20;4.00;;;;;;;6.48;66.33;98088.19;5022761;28;20037;-81
2021/11/24 00:14:49;;;;;;;8.48;4.85;;;;;;;6.55;65.75;98078.66;5042135;28;20020;-80
2021/11/24 00:17:16;;;;;;;8.15;4.88;;;;;;;6.53;65.67;98081.44;5036168;28;20206;-80
2021/11/24 00:19:42;;;;;;;9.73;5.90;;;;;;;6.55;65.67;98081.25;5034012;28;20053;-81
2021/11/24 00:22:07;;;;;;;12.68;6.53;;;;;;;6.53;66.13;98075.47;5045219;28;20033;-81
2021/11/24 00:24:33;;;;;;;8.30;5.05;;;;;;;6.55;65.92;98068.31;5053750;28;20040;-80
2021/11/24 00:26:59;;;;;;;7.93;3.72;;;;;;;6.55;66.18;98076.88;5027643;28;20097;-80
2021/11/24 00:29:24;;;;;;;5.75;3.38;;;;;;;6.54;65.91;98077.06;5030746;28;20037;-81
2021/11/24 00:31:50;;;;;;;6.25;3.10;;;;;;;6.49;65.66;98069.09;5032985;28;20029;-80
2021/11/24 00:34:15;;;;;;;6.22;3.38;;;;;;;6.30;66.16;98071.41;5052778;28;20154;-81
2021/11/24 00:36:40;;;;;;;9.23;3.33;;;;;;;6.26;66.34;98069.44;5012334;28;20554;-81
2021/11/24 00:39:06;;;;;;;6.65;3.20;;;;;;;6.22;66.32;98065.63;5046636;28;20037;-81
2021/11/24 00:41:31;;;;;;;5.70;3.38;;;;;;;6.34;65.62;98066.66;5024001;28;20064;-81
2021/11/24 00:43:56;;;;;;;6.90;3.20;;;;;;;6.13;66.29;98060.59;5011399;28;20531;-80
2021/11/24 00:46:22;;;;;;;8.05;3.28;;;;;;;6.15;66.85;98071.59;5043791;28;20071;-81
2021/11/24 00:48:47;;;;;;;5.75;3.15;;;;;;;6.00;66.60;98058.00;5023169;28;20472;-81
2021/11/24 00:51:13;;;;;;;6.03;3.30;;;;;;;5.98;66.58;98065.13;5027562;28;20032;-81
2021/11/24 00:53:38;;;;;;;9.07;3.75;;;;;;;5.92;66.96;98061.50;5029271;28;20457;-81
2021/11/24 00:56:04;;;;;;;8.75;3.80;;;;;;;5.81;67.10;98068.00;5023927;28;20024;-81
2021/11/24 00:58:29;;;;;;;9.30;3.53;;;;;;;5.90;66.57;98060.09;5048286;28;20393;-81
2021/11/24 01:00:55;;;;;;;8.65;4.22;;;;;;;5.63;68.30;98059.97;5060738;28;20086;-81
2021/11/24 01:03:20;;;;;;;8.90;4.20;;;;;;;5.63;67.79;98059.97;5048835;28;20063;-82
2021/11/24 01:05:46;;;;;;;9.40;4.45;;;;;;;5.58;67.68;98054.56;5029092;28;20595;-81
2021/11/24 01:08:16;;;;;;;6.95;3.88;;;;;;;5.54;68.13;98054.16;5062038;28;20035;-82
2021/11/24 01:10:42;;;;;;;7.82;4.93;;;;;;;5.68;67.70;98056.81;5052202;28;20028;-81
2021/11/24 01:13:08;;;;;;;8.43;4.55;;;;;;;5.66;67.42;98040.72;5023462;28;20134;-81
2021/11/24 01:15:33;;;;;;;10.68;5.25;;;;;;;5.71;67.46;98049.47;5013193;28;20021;-82
2021/11/24 01:17:59;;;;;;;8.20;4.72;;;;;;;5.63;67.54;98055.59;5033839;28;20693;-81
2021/11/24 01:20:24;;;;;;;9.60;4.97;;;;;;;5.72;67.33;98052.84;5022038;28;20028;-81
2021/11/24 01:22:50;;;;;;;9.77;4.40;;;;;;;5.79;67.40;98046.75;5023737;28;20039;-81
2021/11/24 01:25:15;;;;;;;10.15;4.70;;;;;;;5.80;66.93;98053.50;5025728;28;20032;-81
2021/11/24 01:27:41;;;;;;;9.68;5.40;;;;;;;5.70;67.20;98044.50;5032152;28;20150;-81
2021/11/24 01:30:09;;;;;;;11.93;5.28;;;;;;;5.61;67.61;98046.44;5048610;28;20033;-81
2021/11/24 01:32:35;;;;;;;8.82;4.72;;;;;;;5.71;67.54;98041.72;5048347;28;20488;-81
2021/11/24 01:35:01;;;;;;;13.55;6.93;;;;;;;5.63;67.83;98045.25;5022866;28;20033;-82
2021/11/24 01:37:26;;;;;;;11.38;5.85;;;;;;;5.77;67.16;98050.50;5017288;28;20441;-82
2021/11/24 01:39:54;;;;;;;13.07;5.70;;;;;;;5.57;67.57;98033.13;5066304;28;20033;-82
2021/11/24 01:42:20;;;;;;;10.82;6.50;;;;;;;5.77;66.93;98038.34;5036271;28;20825;-81
2021/11/24 01:44:45;;;;;;;9.93;5.88;;;;;;;5.84;66.66;98040.19;5047843;28;20136;-82
2021/11/24 01:47:11;;;;;;;12.88;5.38;;;;;;;5.79;66.66;98038.16;5036400;28;20032;-82
2021/11/24 01:49:36;;;;;;;10.65;6.30;;;;;;;5.88;66.72;98036.22;5026198;28;20107;-82
2021/11/24 01:52:02;;;;;;;9.57;5.80;;;;;;;5.88;66.27;98042.22;5016624;28;20029;-81
2021/11/24 01:54:29;;;;;;;9.23;5.63;;;;;;;5.96;65.90;98038.69;5047652;28;20032;-82
2021/11/24 01:56:54;;;;;;;10.55;5.78;;;;;;;5.96;66.29;98030.91;4988333;28;20319;-81
2021/11/24 01:59:20;;;;;;;17.10;5.90;;;;;;;5.89;65.91;98019.72;5043201;28;20127;-81
2021/11/24 02:01:46;;;;;;;8.80;5.53;;;;;;;5.91;66.16;98012.56;5044380;28;20479;-82
2021/11/24 02:04:14;;;;;;;10.82;5.65;;;;;;;5.86;65.76;98014.94;5054338;28;20089;-82
2021/11/24 02:06:40;;;;;;;11.38;5.00;;;;;;;5.91;66.00;98007.41;5021857;28;20534;-81
2021/11/24 02:09:06;;;;;;;10.07;5.50;;;;;;;6.03;65.98;98018.81;5023850;28;20043;-81
2021/11/24 02:11:38;;;;;;;11.90;6.38;;;;;;;5.86;65.15;98004.59;5038661;28;20463;-82
2021/11/24 02:14:04;;;;;;;8.55;5.35;;;;;;;5.97;65.68;98010.06;5043221;28;20370;-82
2021/11/24 02:16:30;;;;;;;10.18;5.47;;;;;;;6.07;65.00;98006.31;5025789;28;20036;-81
2021/11/24 02:18:55;;;;;;;9.65;5.38;;;;;;;5.98;65.48;97998.72;5044745;28;20047;-81
2021/11/24 02:21:21;;;;;;;9.38;5.40;;;;;;;6.11;65.35;98004.94;5043251;28;20073;-81
2021/11/24 02:23:46;;;;;;;10.20;5.25;;;;;;;6.15;65.11;98000.94;5040384;28;20052;-81
2021/11/24 02:26:12;;;;;;;11.57;6.38;;;;;;;6.09;65.43;97991.41;5034871;28;20242;-82
2021/11/24 02:28:39;;;;;;;13.82;6.07;;;;;;;6.08;65.48;97994.97;5019235;28;20035;-81
2021/11/24 02:31:20;;;;;;;9.48;5.05;;;;;;;5.85;65.85;97987.53;5015910;28;20036;-81
2021/11/24 02:33:50;;;;;;;11.27;5.40;;;;;;;5.91;65.24;97986.72;5039084;28;20102;-82
2021/11/24 02:36:16;;;;;;;14.10;5.90;;;;;;;6.11;65.51;97985.03;5027997;28;20024;-81
2021/11/24 02:38:41;;;;;;;10.23;5.53;;;;;;;6.19;64.96;97976.31;5062483;28;20042;-81
2021/11/24 02:41:07;;;;;;;7.80;4.95;;;;;;;6.24;65.45;97983.47;5040734;28;20534;-81
2021/11/24 02:43:32;;;;;;;8.80;4.43;;;;;;;6.14;65.22;97984.66;5059693;28;20024;-81
2021/11/24 02:45:57;;;;;;;7.53;4.40;;;;;;;6.24;64.74;97981.69;5038127;28;20029;-81
2021/11/24 02:48:26;;;;;;;8.63;5.03;;;;;;;6.23;64.49;97989.66;5057148;28;20427;-80
2021/11/24 02:50:53;;;;;;;9.05;5.45;;;;;;;6.28;64.70;97977.72;5058638;28;20458;-81
2021/11/24 02:53:19;;;;;;;7.88;4.50;;;;;;;6.19;65.15;97987.44;5043546;28;20333;-81
2021/11/24 02:55:45;;;;;;;9.00;4.57;;;;;;;6.33;64.39;97983.09;5055714;28;20021;-81
2021/11/24 02:58:10;;;;;;;9.80;4.43;;;;;;;6.41;64.73;97986.47;5042751;28;20072;-81
2021/11/24 03:00:36;;;;;;;7.18;4.20;;;;;;;6.41;64.03;97989.88;5057770;28;20027;-81
2021/11/24 03:03:01;;;;;;;6.63;4.15;;;;;;;6.36;64.71;97990.47;5040934;28;20050;-80
2021/11/24 03:05:27;;;;;;;9.32;4.18;;;;;;;6.38;64.23;97979.94;5042626;28;20027;-80
2021/11/24 03:07:53;;;;;;;7.80;4.70;;;;;;;6.45;64.57;97988.47;5032997;28;20027;-80
2021/11/24 03:10:19;;;;;;;12.50;5.47;;;;;;;6.43;64.36;97987.09;5042865;28;20395;-80
2021/11/24 03:12:44;;;;;;;8.43;4.50;;;;;;;6.39;64.76;97976.31;5038625;28;20033;-80
2021/11/24 03:15:10;;;;;;;10.15;4.97;;;;;;;6.31;65.10;97974.75;5044900;28;20040;-80
2021/11/24 03:17:36;;;;;;;8.57;3.95;;;;;;;6.40;64.73;97977.16;5044418;28;20043;-80
2021/11/24 03:20:04;;;;;;;7.65;4.68;;;;;;;6.38;64.54;97972.94;5059481;28;20379;-80
2021/11/24 03:22:29;;;;;;;7.53;5.15;;;;;;;6.39;64.68;97971.16;5061637;28;20445;-80
2021/11/24 03:24:57;;;;;;;8.25;4.00;;;;;;;6.37;64.63;97980.91;5044003;28;20120;-80
2021/11/24 03:27:24;;;;;;;9.07;4.75;;;;;;;6.45;63.99;97975.56;5044002;28;20020;-80
2021/11/24 03:29:50;;;;;;;13.35;6.72;;;;;;;6.53;64.66;97966.81;5038445;28;20032;-80
2021/11/24 03:32:15;;;;;;;12.30;6.57;;;;;;;6.48;64.27;97959.63;5044341;28;20034;-81
2021/11/24 03:34:41;;;;;;;9.50;5.38;;;;;;;6.51;64.47;97961.00;5058777;28;20009;-81
2021/11/24 03:37:06;;;;;;;10.38;4.60;;;;;;;6.44;64.15;97953.25;5076894;28;20062;-80
2021/11/24 03:39:31;;;;;;;8.60;5.40;;;;;;;6.43;64.69;97949.09;5041750;28;20162;-80
2021/11/24 03:41:57;;;;;;;9.63;5.55;;;;;;;6.47;64.58;97945.09;5042481;28;20032;-80
2021/11/24 03:44:22;;;;;;;10.85;5.40;;;;;;;6.45;64.49;97944.50;5033477;28;20036;-81
2021/11/24 03:46:47;;;;;;;9.93;5.45;;;;;;;6.36;64.68;97948.28;5044513;28;20020;-81
2021/11/24 03:49:13;;;;;;;10.30;6.20;;;;;;;6.41;65.07;97943.31;5042801;28;20025;-81
2021/11/24 03:51:38;;;;;;;11.98;6.05;;;;;;;6.34;64.84;97937.31;5042697;28;20308;-81
2021/11/24 03:54:04;;;;;;;13.88;5.20;;;;;;;6.40;64.79;97935.75;5023347;28;20044;-80
2021/11/24 03:56:29;;;;;;;8.50;5.15;;;;;;;6.48;64.88;97938.16;5061115;28;20031;-80
2021/11/24 03:58:54;;;;;;;7.90;4.50;;;;;;;6.47;64.72;97928.78;5025151;28;20115;-80
2021/11/24 04:01:20;;;;;;;8.50;4.40;;;;;;;6.47;64.31;97926.19;5062090;28;20070;-81
2021/11/24 04:03:45;;;;;;;7.93;4.13;;;;;;;6.44;64.90;97922.22;5059353;28;20387;-81
2021/11/24 04:06:11;;;;;;;10.00;4.85;;;;;;;6.50;64.49;97929.19;5060596;28;20095;-80
2021/11/24 04:08:36;;;;;;;6.47;4.47;;;;;;;6.47;64.54;97932.16;5044513;28;20021;-80
2021/11/24 04:11:01;;;;;;;9.65;4.50;;;;;;;6.35;65.23;97933.75;5026238;28;20020;-81
2021/11/24 04:13:27;;;;;;;9.18;5.78;;;;;;;6.24;64.94;97917.03;5027681;28;20024;-81
2021/11/24 04:15:52;;;;;;;12.98;5.68;;;;;;;6.29;65.10;97919.03;5014739;28;20374;-81
2021/11/24 04:18:18;;;;;;;10.70;5.72;;;;;;;6.36;65.06;97919.84;5059594;28;20028;-81
2021/11/24 04:20:43;;;;;;;9.90;6.18;;;;;;;6.19;65.39;97915.03;5061764;28;20024;-81
2021/11/24 04:23:12;;;;;;;11.88;5.30;;;;;;;6.18;65.47;97917.81;5026482;28;20036;-81
2021/11/24 04:25:37;;;;;;;9.20;5.88;;;;;;;6.24;65.85;97916.22;5027121;28;20514;-80
2021/11/24 04:28:03;;;;;;;8.55;5.45;;;;;;;6.17;65.68;97917.03;5041390;28;20028;-81
2021/11/24 04:30:29;;;;;;;9.13;5.22;;;;;;;6.26;65.84;97914.25;5051779;28;20485;-80
2021/11/24 04:32:54;;;;;;;8.43;4.97;;;;;;;6.31;65.15;97909.28;5041509;28;20036;-80
2021/11/24 04:35:20;;;;;;;8.02;5.13;;;;;;;6.32;65.22;97908.28;5039217;28;20017;-81
2021/11/24 04:37:47;;;;;;;10.43;5.80;;;;;;;6.30;65.09;97899.94;5027210;28;20027;-81
2021/11/24 04:40:13;;;;;;;13.13;5.95;;;;;;;6.27;65.18;97903.72;5022780;28;20075;-81
2021/11/24 04:42:40;;;;;;;8.82;5.20;;;;;;;6.27;65.65;97897.75;5025392;28;20475;-81
2021/11/24 04:45:05;;;;;;;10.27;5.78;;;;;;;6.30;65.29;97892.16;5031621;28;20431;-81
2021/11/24 04:47:32;;;;;;;10.57;5.07;;;;;;;6.28;65.31;97900.13;5060301;28;20024;-81
2021/11/24 04:49:57;;;;;;;10.60;6.20;;;;;;;6.29;65.16;97898.31;5042509;28;20086;-81
2021/11/24 04:52:22;;;;;;;10.75;5.97;;;;;;;6.35;65.19;97897.53;5042657;28;20024;-81
2021/11/24 04:54:48;;;;;;;9.25;5.60;;;;;;;6.18;65.60;97892.75;5058327;28;20028;-81
2021/11/24 04:57:13;;;;;;;8.98;4.82;;;;;;;6.28;66.01;97897.53;5042679;28;20020;-81
2021/11/24 04:59:40;;;;;;;12.38;6.80;;;;;;;6.41;65.36;97901.94;5058340;28;20040;-81
2021/11/24 05:02:05;;;;;;;9.55;5.20;;;;;;;6.23;65.75;97893.97;5055442;28;20024;-81
2021/11/24 05:04:31;;;;;;;9.38;5.45;;;;;;;6.26;65.56;97889.19;5042068;28;20078;-81
2021/11/24 05:06:56;;;;;;;10.27;5.75;;;;;;;6.45;65.38;97882.44;5040404;28;20245;-81
2021/11/24 05:09:22;;;;;;;10.35;5.28;;;;;;;6.37;65.21;97882.63;5075852;28;20431;-81
2021/11/24 05:11:47;;;;;;;9.82;5.55;;;;;;;6.28;65.72;97881.25;5025054;28;20086;-82
2021/11/24 05:14:18;;;;;;;7.75;3.78;;;;;;;6.30;65.52;97889.59;5024075;28;20021;-82
2021/11/24 05:16:47;;;;;;;8.35;4.10;;;;;;;6.21;66.66;97886.41;5058923;28;20380;-83
2021/11/24 05:19:18;;;;;;;5.07;3.30;;;;;;;6.15;66.08;97875.06;5042851;28;20055;-83
2021/11/24 05:21:44;;;;;;;11.27;3.78;;;;;;;6.27;66.19;97877.06;5041534;28;20021;-82
2021/11/24 05:24:10;;;;;;;6.43;3.38;;;;;;;6.35;66.01;97875.06;5059040;28;20032;-81
2021/11/24 05:26:37;;;;;;;7.22;3.80;;;;;;;6.49;65.12;97877.66;5042862;28;20544;-81
2021/11/24 05:29:03;;;;;;;5.38;2.72;;;;;;;6.57;64.89;97877.44;5060269;28;20035;-81
2021/11/24 05:31:29;;;;;;;5.70;3.15;;;;;;;6.53;64.83;97871.88;5058123;28;20036;-82
2021/11/24 05:33:54;;;;;;;4.25;2.50;;;;;;;6.56;64.92;97876.66;5037473;28;20720;-81
2021/11/24 05:36:21;;;;;;;4.43;2.63;;;;;;;6.53;64.97;97877.06;5041050;28;20476;-81
2021/11/24 05:38:47;;;;;;;4.25;2.53;;;;;;;6.43;65.35;97878.47;5040581;28;20044;-82
2021/11/24 05:41:13;;;;;;;6.68;2.95;;;;;;;6.58;64.54;97873.88;5059182;28;20029;-81
2021/11/24 05:43:39;;;;;;;5.35;3.30;;;;;;;6.58;65.03;97871.28;5059386;28;20028;-82
2021/11/24 05:48:40;;;;;;;4.43;2.88;;;;;;;6.44;65.60;97875.66;5061419;28;20021;-82
2021/11/24 05:51:06;;;;;;;4.88;2.80;;;;;;;6.53;65.12;97869.28;5053800;28;20025;-81
2021/11/24 05:53:32;;;;;;;5.00;2.70;;;;;;;6.23;65.39;97868.09;5046310;28;20360;-82
2021/11/24 05:55:58;;;;;;;4.88;2.97;;;;;;;6.34;65.54;97870.06;5080402;28;20510;-82
2021/11/24 05:58:24;;;;;;;6.93;4.25;;;;;;;6.53;65.26;97864.13;5045251;28;20063;-81
2021/11/24 06:00:50;;;;;;;4.63;2.58;;;;;;;6.50;64.78;97854.16;5061365;28;20033;-81
2021/11/24 06:03:15;;;;;;;5.88;2.97;;;;;;;6.65;64.65;97863.47;5044095;28;20020;-81
2021/11/24 06:05:41;;;;;;;3.60;2.80;;;;;;;6.79;64.14;97856.50;5045701;28;20369;-81
2021/11/24 06:08:06;;;;;;;3.05;2.15;;;;;;;6.77;64.19;97855.91;5014351;28;20112;-81
2021/11/24 06:10:32;;;;;;;4.45;2.35;;;;;;;6.63;64.65;97857.72;5038002;28;20475;-81
2021/11/24 06:12:58;;;;;;;5.15;2.95;;;;;;;6.53;65.14;97852.97;5060325;28;20024;-81
2021/11/24 06:15:29;;;;;;;6.45;3.47;;;;;;;6.56;64.92;97848.19;5045313;28;20016;-81
2021/11/24 06:17:54;;;;;;;6.95;4.55;;;;;;;6.58;64.95;97845.41;5062360;28;20024;-81
2021/11/24 06:20:19;;;;;;;5.25;2.75;;;;;;;6.55;64.50;97838.03;5026823;28;20554;-82
2021/11/24 06:22:45;;;;;;;6.82;4.30;;;;;;;6.39;65.46;97841.81;5032839;28;20025;-81
2021/11/24 06:25:12;;;;;;;6.90;3.65;;;;;;;6.41;65.47;97842.44;5044383;28;20020;-81
2021/11/24 06:27:41;;;;;;;7.30;3.90;;;;;;;6.40;65.32;97838.25;5027054;28;20106;-81
2021/11/24 06:30:06;;;;;;;5.07;3.45;;;;;;;6.23;66.17;97837.88;5036787;28;20040;-81
2021/11/24 06:32:32;;;;;;;6.50;2.95;;;;;;;6.33;65.45;97834.88;5027110;28;20069;-82
2021/11/24 06:34:57;;;;;;;6.43;3.78;;;;;;;6.49;65.31;97837.03;5057560;28;20016;-81
2021/11/24 06:37:23;;;;;;;11.85;5.82;;;;;;;6.52;65.43;97838.44;5044621;28;20439;-81
2021/11/24 06:39:48;;;;;;;8.25;4.60;;;;;;;6.51;65.48;97844.59;5044314;28;20025;-82
2021/11/24 06:42:15;;;;;;;7.38;4.22;;;;;;;6.53;65.26;97846.00;5029681;28;20122;-82
2021/11/24 06:44:40;;;;;;;11.60;5.40;;;;;;;6.48;65.17;97840.63;5062508;28;20032;-81
2021/11/24 06:47:06;;;;;;;9.70;5.05;;;;;;;6.39;65.89;97841.81;5042146;28;20238;-81
2021/11/24 06:49:31;;;;;;;9.10;4.57;;;;;;;6.62;65.07;97840.63;5045664;28;20535;-81
2021/11/24 06:51:57;;;;;;;6.15;3.50;;;;;;;6.60;65.18;97845.19;5028489;28;20021;-82
2021/11/24 06:54:22;;;;;;;8.13;3.60;;;;;;;6.55;65.64;97848.41;5044243;28;20499;-81
2021/11/24 06:56:50;;;;;;;9.43;4.10;;;;;;;6.47;65.25;97848.59;5044095;28;20320;-82
2021/11/24 06:59:17;;;;;;;7.47;3.75;;;;;;;6.55;65.57;97851.78;5037378;28;20028;-82
2021/11/24 07:01:43;;;;;;;8.05;3.67;;;;;;;6.27;65.93;97846.84;5060558;28;20056;-83
2021/11/24 07:04:09;;;;;;;7.88;3.53;;;;;;;6.37;65.62;97843.81;5045808;28;20056;-81
2021/11/24 07:06:34;;;;;;;6.32;3.20;;;;;;;6.32;66.06;97841.84;5044507;28;20020;-81
2021/11/24 07:09:00;;;;;;;6.57;3.75;;;;;;;6.26;66.02;97841.84;5045127;28;20032;-81
2021/11/24 07:11:30;;;;;;;9.07;5.70;;;;;;;6.32;65.84;97848.81;5025413;28;20387;-82
2021/11/24 07:13:57;;;;;;;6.05;3.38;;;;;;;6.31;65.29;97849.81;5081099;28;20302;-82
2021/11/24 07:16:22;;;;;;;5.85;3.15;;;;;;;6.36;65.26;97843.03;5040314;28;20024;-81
2021/11/24 07:18:48;;;;;;;6.35;2.70;;;;;;;6.25;65.68;97840.25;5057428;28;20081;-82
2021/11/24 07:21:13;;;;;;;4.60;2.55;;;;;;;6.16;65.97;97839.66;5059692;28;20112;-83
2021/11/24 07:23:38;;;;;;;3.85;2.40;;;;;;;6.38;65.08;97838.44;5041475;28;20481;-82
2021/11/24 07:26:04;;;;;;;5.65;2.92;;;;;;;6.42;64.41;97838.06;5043195;28;20488;-81
2021/11/24 07:28:30;;;;;;;5.22;2.90;;;;;;;6.54;64.72;97832.06;5043364;28;20110;-81
2021/11/24 07:30:56;;;;;;;4.30;2.35;;;;;;;6.14;65.02;97834.69;5043800;28;20487;-81
2021/11/24 07:33:24;;;;;;;4.00;2.22;;;;;;;6.17;65.34;97829.13;5060080;28;20563;-81
2021/11/24 07:35:49;;;;;;;4.03;2.50;;;;;;;6.29;65.13;97836.25;5044950;28;20048;-82
2021/11/24 07:38:15;;;;;;;3.53;1.80;;;;;;;6.14;65.66;97837.28;5042269;28;20699;-81
2021/11/24 07:40:40;;;;;;;4.13;2.10;;;;;;;5.93;65.36;97833.06;5014899;28;20107;-81
2021/11/24 07:43:06;;;;;;;5.15;2.45;;;;;;;6.16;65.04;97840.44;5015403;28;20029;-81
2021/11/24 07:45:32;;;;;;;3.08;1.98;;;;;;;6.28;64.41;97834.69;5039861;28;20552;-82
2021/11/24 07:47:58;;;;;;;2.30;1.45;;;;;;;6.35;63.85;97836.25;4998768;28;20124;-81
2021/11/24 07:50:23;;;;;;;3.15;1.90;;;;;;;6.36;63.98;97830.09;5031839;28;20384;-82
2021/11/24 07:52:49;;;;;;;4.20;2.33;;;;;;;6.49;63.61;97831.88;5051183;28;20083;-81
2021/11/24 07:55:15;;;;;;;4.30;2.00;;;;;;;6.27;64.20;97827.91;5017705;28;20017;-82
2021/11/24 07:57:40;;;;;;;2.88;1.95;;;;;;;6.14;64.19;97821.75;5017924;28;20035;-81
2021/11/24 08:00:10;;;;;;;4.85;2.33;;;;;;;6.40;63.97;97821.94;5051609;28;20095;-81
2021/11/24 08:02:35;;;;;;;4.13;2.42;;;;;;;6.44;63.47;97823.91;5037398;28;20112;-81
2021/11/24 08:05:04;;;;;;;3.10;2.33;;;;;;;6.23;63.28;97821.56;5017429;28;20480;-82
2021/11/24 08:07:32;;;;;;;4.05;1.88;;;;;;;5.86;64.71;97818.53;5045487;28;20121;-82
2021/11/24 08:09:58;;;;;;;4.00;2.63;;;;;;;5.86;65.13;97824.53;5065831;28;20028;-82
2021/11/24 08:12:23;;;;;;;3.97;2.05;;;;;;;5.86;64.64;97821.13;5053505;28;20111;-82
2021/11/24 08:14:49;;;;;;;4.35;2.28;;;;;;;6.12;64.41;97821.16;5018066;28;20139;-82
2021/11/24 08:17:14;;;;;;;3.70;2.80;;;;;;;6.10;64.01;97807.66;4993509;28;20036;-83
2021/11/24 08:19:39;;;;;;;4.85;2.63;;;;;;;6.13;62.64;97809.81;5030697;28;20467;-82
2021/11/24 08:22:05;;;;;;;3.30;2.20;;;;;;;6.21;63.66;97813.22;5048039;28;20032;-82
2021/11/24 08:24:30;;;;;;;5.57;3.63;;;;;;;5.92;63.59;97818.53;5017077;28;20476;-82
2021/11/24 08:26:55;;;;;;;6.18;2.75;;;;;;;6.38;62.73;97820.34;5013479;28;20444;-81
2021/11/24 08:29:21;;;;;;;6.93;4.25;;;;;;;6.50;62.77;97806.81;4999485;28;20029;-82
2021/11/24 08:31:46;;;;;;;3.20;2.20;;;;;;;6.28;63.51;97804.44;5007021;28;20480;-82
2021/11/24 08:34:15;;;;;;;2.92;2.10;;;;;;;6.29;62.49;97792.28;5022645;28;20076;-81
2021/11/24 08:36:40;;;;;;;3.22;2.20;;;;;;;5.98;63.57;97796.28;5031630;28;20024;-83
2021/11/24 08:39:07;;;;;;;4.13;2.33;;;;;;;6.30;63.09;97788.72;5048882;28;20041;-82
2021/11/24 08:41:33;;;;;;;3.42;1.88;;;;;;;6.08;62.65;97790.75;5027157;28;20626;-81
2021/11/24 08:43:58;;;;;;;3.72;2.05;;;;;;;6.18;63.11;97791.13;5030733;28;20043;-81
2021/11/24 08:46:24;;;;;;;4.97;2.30;;;;;;;6.20;63.09;97791.72;5016415;28;20055;-83
2021/11/24 08:48:49;;;;;;;2.88;1.63;;;;;;;6.56;61.92;97785.28;5032521;28;20032;-81
2021/11/24 08:51:15;;;;;;;3.42;1.95;;;;;;;6.21;63.29;97785.56;5049162;28;20029;-82
2021/11/24 08:53:41;;;;;;;3.25;2.35;;;;;;;6.23;62.29;97772.44;5049125;28;20024;-82
2021/11/24 08:56:06;;;;;;;2.80;2.00;;;;;;;6.23;62.43;97767.25;5029632;28;20432;-83
2021/11/24 08:58:32;;;;;;;2.92;2.10;;;;;;;6.45;62.37;97766.03;5016295;28;20094;-81
2021/11/24 09:00:57;;;;;;;3.85;2.10;;;;;;;6.39;62.10;97774.56;5021861;28;20060;-81
2021/11/24 09:03:23;;;;;;;2.75;1.83;;;;;;;6.38;61.10;97770.41;5029095;28;20107;-82
2021/11/24 09:05:48;;;;;;;3.85;2.45;;;;;;;6.45;61.63;97766.03;5024731;28;20021;-81
2021/11/24 09:08:14;;;;;;;4.60;2.20;;;;;;;6.71;60.88;97764.34;5033056;28;20120;-82
2021/11/24 09:10:40;;;;;;;3.50;1.75;;;;;;;6.67;60.50;97771.72;5054098;28;20040;-82
2021/11/24 09:13:06;;;;;;;4.15;2.25;;;;;;;6.33;61.71;97765.06;5038225;28;20070;-81
2021/11/24 09:15:31;;;;;;;4.35;1.95;;;;;;;6.23;62.17;97760.28;5046905;28;20055;-82
2021/11/24 09:17:57;;;;;;;5.35;2.03;;;;;;;6.23;61.47;97752.53;5031368;28;20067;-82
2021/11/24 09:20:22;;;;;;;3.97;2.25;;;;;;;6.54;61.13;97756.25;5027067;28;20032;-81
2021/11/24 09:22:49;;;;;;;2.28;1.58;;;;;;;6.68;60.20;97755.22;5042405;28;20136;-82
2021/11/24 09:25:18;;;;;;;6.07;2.10;;;;;;;6.51;60.67;97751.47;5048019;28;20036;-83
2021/11/24 09:27:57;;;;;;;4.03;2.10;;;;;;;6.39;60.67;97748.72;5017018;28;20043;-79
2021/11/24 09:30:24;;;;;;;3.50;1.88;;;;;;;6.79;61.01;97742.63;5048594;28;20061;-82
2021/11/24 09:32:49;;;;;;;5.50;2.22;;;;;;;7.01;59.92;97743.94;5048282;28;20438;-82
2021/11/24 09:35:17;;;;;;;3.42;2.03;;;;;;;6.60;59.85;97734.75;5032469;28;20024;-82
2021/11/24 09:37:43;;;;;;;2.75;1.95;;;;;;;6.65;60.69;97736.69;5049533;28;20037;-82
2021/11/24 09:40:10;;;;;;;3.60;1.83;;;;;;;6.74;60.67;97735.47;5015238;28;20238;-83
2021/11/24 09:42:40;;;;;;;3.88;1.77;;;;;;;6.84;60.20;97737.63;5032575;28;20024;-82
2021/11/24 09:45:07;;;;;;;5.10;2.25;;;;;;;7.15;59.64;97734.28;5032455;28;20500;-82
2021/11/24 09:47:34;;;;;;;3.55;2.45;;;;;;;7.05;59.93;97731.34;5032557;28;20020;-82
2021/11/24 09:50:01;;;;;;;5.80;2.50;;;;;;;7.01;59.96;97730.16;5031911;28;20116;-81
2021/11/24 09:52:27;;;;;;;3.47;2.00;;;;;;;7.18;59.29;97723.53;5032671;28;20028;-82
2021/11/24 09:54:52;;;;;;;3.50;2.50;;;;;;;7.20;60.16;97728.50;5031916;28;20481;-82
2021/11/24 09:57:20;;;;;;;4.70;1.85;;;;;;;7.07;59.98;97721.59;5032834;28;20119;-81
2021/11/24 09:59:46;;;;;;;3.65;2.10;;;;;;;7.27;60.03;97724.84;5032480;28;20358;-82
2021/11/24 10:02:12;;;;;;;2.97;1.85;;;;;;;7.13;59.18;97721.53;5048705;28;20036;-81
2021/11/24 10:04:40;;;;;;;3.70;1.80;;;;;;;7.29;58.95;97706.50;5031853;28;20368;-81
2021/11/24 10:07:09;;;;;;;2.83;1.52;;;;;;;7.39;59.28;97719.00;5037979;28;20764;-82
2021/11/24 10:09:34;;;;;;;2.72;1.58;;;;;;;7.67;58.24;97714.19;5050653;28;20491;-81
2021/11/24 10:11:59;;;;;;;2.80;1.45;;;;;;;7.76;57.75;97699.19;5048227;28;20035;-82
2021/11/24 10:14:25;;;;;;;3.03;1.98;;;;;;;7.45;58.50;97700.00;5015521;28;20020;-83
2021/11/24 10:16:50;;;;;;;2.55;1.98;;;;;;;7.36;58.74;97701.28;5021916;28;20032;-83
2021/11/24 10:19:16;;;;;;;2.20;1.27;;;;;;;7.66;58.06;97694.47;5012418;28;20535;-82
2021/11/24 10:21:59;;;;;;;2.42;1.35;;;;;;;7.07;58.14;97677.56;5016178;28;20119;-83
2021/11/24 10:24:40;;;;;;;4.07;2.03;;;;;;;7.44;58.30;97693.25;5015539;28;20036;-82
2021/11/24 10:27:07;;;;;;;3.70;1.88;;;;;;;7.23;57.59;97681.44;5031925;28;20029;-82
2021/11/24 10:29:34;;;;;;;3.00;1.58;;;;;;;7.48;57.55;97678.88;5032081;28;20448;-83
2021/11/24 10:32:04;;;;;;;4.55;1.88;;;;;;;7.36;58.00;97665.81;5018080;28;20035;-82
2021/11/24 10:34:31;;;;;;;6.50;1.83;;;;;;;7.67;57.80;97662.34;5028603;28;20082;-81
2021/11/24 10:37:10;;;;;;;5.32;2.25;;;;;;;7.81;57.67;97657.88;4998439;28;20131;-82
2021/11/24 10:39:36;;;;;;;3.45;2.13;;;;;;;7.68;57.65;97663.94;5026992;28;20039;-83
2021/11/24 10:42:12;;;;;;;3.28;2.00;;;;;;;6.74;58.60;97661.22;5035219;28;20404;-82
2021/11/24 10:44:38;;;;;;;3.05;1.60;;;;;;;7.00;58.00;97654.31;5051872;28;20508;-83
2021/11/24 10:47:07;;;;;;;2.53;1.73;;;;;;;6.92;58.14;97645.00;5035243;28;20059;-83
2021/11/24 10:49:37;;;;;;;3.05;1.80;;;;;;;7.20;57.68;97636.03;5052023;28;20028;-82
2021/11/24 10:52:35;;;;;;;2.75;1.90;;;;;;;6.48;58.56;97638.88;5069885;28;20032;-83
2021/11/24 10:55:11;;;;;;;3.75;2.17;;;;;;;7.08;58.46;97632.56;5026871;28;20041;-82
2021/11/24 10:57:38;;;;;;;4.00;2.22;;;;;;;6.92;58.08;97632.06;5016273;28;20432;-83
2021/11/24 11:00:20;;;;;;;3.88;2.20;;;;;;;6.77;58.68;97626.38;5031925;28;20044;-82
2021/11/24 11:02:47;;;;;;;3.50;2.08;;;;;;;6.79;58.94;97619.19;4999371;28;20131;-82
2021/11/24 11:05:19;;;;;;;4.22;2.40;;;;;;;6.89;57.66;97614.34;5015367;28;20036;-83
2021/11/24 11:07:54;;;;;;;2.97;2.25;;;;;;;6.78;58.43;97619.41;5044298;28;20119;-83
2021/11/24 11:10:22;;;;;;;3.22;1.83;;;;;;;6.88;57.75;97605.00;5089964;28;20338;-82
2021/11/24 11:12:50;;;;;;;2.63;2.00;;;;;;;7.00;58.00;97610.28;5052972;28;20373;-82
2021/11/24 11:15:17;;;;;;;3.72;2.53;;;;;;;7.05;58.15;97601.91;5031751;28;20123;-82
2021/11/24 11:18:19;;;;;;;3.13;2.17;;;;;;;6.68;58.61;97596.56;5048630;28;20056;-82
2021/11/24 11:20:53;;;;;;;6.43;3.78;;;;;;;6.85;58.08;97594.28;5021590;28;20035;-83
2021/11/24 11:23:28;;;;;;;3.53;2.60;;;;;;;6.76;58.52;97588.56;5071103;28;20036;-83
2021/11/24 11:26:03;;;;;;;4.05;2.42;;;;;;;6.64;58.25;97585.06;5037938;28;20371;-82
2021/11/24 11:28:31;;;;;;;4.43;2.92;;;;;;;6.57;58.70;97578.13;5044725;28;20032;-83
2021/11/24 11:30:58;;;;;;;4.82;2.58;;;;;;;6.42;58.79;97567.25;5035026;28;20039;-83
2021/11/24 11:33:31;;;;;;;4.22;2.78;;;;;;;6.52;58.46;97565.00;5051015;28;20024;-82
2021/11/24 11:36:00;;;;;;;4.65;2.92;;;;;;;7.00;57.25;97557.72;5025679;28;20047;-82
2021/11/24 11:38:26;;;;;;;4.25;2.60;;;;;;;6.95;57.56;97555.75;5015720;28;20079;-82
2021/11/24 11:40:52;;;;;;;3.83;2.70;;;;;;;7.04;57.40;97544.16;4998068;28;20064;-83